createdAt,value
2022-09-16T00:02:05.122Z,99278.77
2022-09-16T00:04:32.294Z,99283.98
2022-09-16T00:06:59.143Z,99281.06
2022-09-16T00:09:26.503Z,99274.71
2022-09-16T00:11:53.827Z,99275.92
2022-09-16T00:14:20.608Z,99277.05
2022-09-16T00:16:47.560Z,99283.53
2022-09-16T00:19:14.408Z,99287.65
2022-09-16T00:21:41.254Z,99288.27
2022-09-16T00:24:10.563Z,99289.02
2022-09-16T00:26:38.806Z,99284.59
2022-09-16T00:29:05.591Z,99279.35
2022-09-16T00:31:32.488Z,99279.57
2022-09-16T00:33:59.362Z,99274.02
2022-09-16T00:36:26.236Z,99267.96
2022-09-16T00:38:55.262Z,99265.26
2022-09-16T00:41:27.618Z,99272.02
2022-09-16T00:43:54.458Z,99275.30
2022-09-16T00:46:33.824Z,99275.45
2022-09-16T00:49:03.221Z,99269.76
2022-09-16T00:51:30.771Z,99269.23
2022-09-16T00:54:03.456Z,99272.47
2022-09-16T00:56:31.684Z,99272.88
2022-09-16T00:59:08.877Z,99266.66
2022-09-16T01:01:36.316Z,99267.20
2022-09-16T01:04:09.289Z,99264.52
2022-09-16T01:06:37.588Z,99258.77
2022-09-16T01:09:04.691Z,99252.86
2022-09-16T01:11:32.152Z,99248.00
2022-09-16T01:14:19.680Z,99248.86
2022-09-16T01:16:58.373Z,99249.07
2022-09-16T01:19:26.590Z,99240.85
2022-09-16T01:22:09.201Z,99237.13
2022-09-16T01:24:48.850Z,99246.19
2022-09-16T01:27:48.672Z,99243.77
2022-09-16T01:30:39.681Z,99245.60
2022-09-16T01:33:12.834Z,99246.14
2022-09-16T01:35:45.278Z,99250.36
2022-09-16T01:38:23.468Z,99248.06
2022-09-16T01:41:03.933Z,99238.27
2022-09-16T01:43:54.969Z,99235.15
2022-09-16T01:46:40.275Z,99234.74
2022-09-16T01:49:40.870Z,99234.00
2022-09-16T01:52:07.615Z,99238.47
2022-09-16T01:54:40.098Z,99239.34
2022-09-16T01:57:11.856Z,99240.94
2022-09-16T01:59:43.322Z,99244.40
2022-09-16T02:02:16.959Z,99239.42
2022-09-16T02:04:50.239Z,99233.88
2022-09-16T02:07:18.298Z,99231.84
2022-09-16T02:09:48.946Z,99231.32
2022-09-16T02:12:21.306Z,99226.48
2022-09-16T02:14:48.559Z,99227.52
2022-09-16T02:17:16.734Z,99230.14
2022-09-16T02:19:49.114Z,99231.44
2022-09-16T02:22:19.364Z,99234.46
2022-09-16T02:24:47.109Z,99233.11
2022-09-16T02:27:16.983Z,99229.19
2022-09-16T02:29:47.076Z,99230.47
2022-09-16T02:32:13.817Z,99234.00
2022-09-16T02:34:43.321Z,99229.35
2022-09-16T02:37:22.788Z,99230.75
2022-09-16T02:39:50.800Z,99219.04
2022-09-16T02:42:17.599Z,99216.26
2022-09-16T02:44:44.824Z,99217.11
2022-09-16T02:47:28.151Z,99226.09
2022-09-16T02:49:56.470Z,99227.12
2022-09-16T02:52:49.699Z,99224.39
2022-09-16T02:55:25.140Z,99221.81
2022-09-16T02:57:51.982Z,99222.48
2022-09-16T03:00:20.678Z,99220.16
2022-09-16T03:02:48.064Z,99220.36
2022-09-16T03:05:14.977Z,99225.45
2022-09-16T03:07:41.822Z,99227.27
2022-09-16T03:10:15.383Z,99221.92
2022-09-16T03:12:46.262Z,99210.81
2022-09-16T03:15:32.257Z,99208.04
2022-09-16T03:18:05.773Z,99209.63
2022-09-16T03:20:54.523Z,99207.79
2022-09-16T03:23:47.787Z,99209.59
2022-09-16T03:26:30.509Z,99211.16
2022-09-16T03:29:26.133Z,99214.74
2022-09-16T03:32:32.932Z,99218.39
2022-09-16T03:35:07.033Z,99212.61
2022-09-16T03:37:35.652Z,99208.16
2022-09-16T03:40:05.932Z,99202.61
2022-09-16T03:42:32.715Z,99203.92
2022-09-16T03:44:59.749Z,99203.27
2022-09-16T03:47:26.496Z,99200.98
2022-09-16T03:49:53.246Z,99197.79
2022-09-16T03:52:20.912Z,99200.40
2022-09-16T03:54:48.248Z,99198.80
2022-09-16T03:57:15.027Z,99203.31
2022-09-16T03:59:42.285Z,99201.52
2022-09-16T04:02:09.130Z,99200.13
2022-09-16T04:04:36.536Z,99195.83
2022-09-16T04:07:03.650Z,99198.60
2022-09-16T04:09:30.901Z,99195.44
2022-09-16T04:11:57.652Z,99197.95
2022-09-16T04:14:24.502Z,99195.23
2022-09-16T04:16:51.866Z,99196.69
2022-09-16T04:19:18.709Z,99194.73
2022-09-16T04:21:45.666Z,99193.80
2022-09-16T04:24:13.667Z,99194.64
2022-09-16T04:26:41.607Z,99192.10
2022-09-16T04:29:09.387Z,99191.86
2022-09-16T04:31:36.222Z,99196.58
2022-09-16T04:34:03.686Z,99197.16
2022-09-16T04:36:30.625Z,99189.44
2022-09-16T04:38:57.983Z,99186.83
2022-09-16T04:41:25.952Z,99182.52
2022-09-16T04:43:54.229Z,99177.59
2022-09-16T04:46:21.136Z,99184.36
2022-09-16T04:48:49.008Z,99185.38
2022-09-16T04:51:16.116Z,99182.30
2022-09-16T04:53:46.477Z,99189.92
2022-09-16T04:56:19.087Z,99187.89
2022-09-16T04:58:48.106Z,99186.15
2022-09-16T05:01:16.630Z,99188.45
2022-09-16T05:03:44.903Z,99196.49
2022-09-16T05:06:18.353Z,99199.59
2022-09-16T05:08:48.860Z,99187.30
2022-09-16T05:11:19.500Z,99188.60
2022-09-16T05:13:46.333Z,99194.92
2022-09-16T05:16:15.167Z,99201.17
2022-09-16T05:18:43.088Z,99195.83
2022-09-16T05:21:12.742Z,99190.45
2022-09-16T05:23:45.944Z,99195.73
2022-09-16T05:26:24.974Z,99204.43
2022-09-16T05:28:52.063Z,99202.29
2022-09-16T05:31:25.644Z,99199.87
2022-09-16T05:34:14.421Z,99203.33
2022-09-16T05:36:43.847Z,99214.48
2022-09-16T05:39:23.641Z,99207.77
2022-09-16T05:41:53.168Z,99200.06
2022-09-16T05:44:19.911Z,99192.41
2022-09-16T05:46:47.367Z,99198.21
2022-09-16T05:49:21.217Z,99198.35
2022-09-16T05:51:48.846Z,99194.16
2022-09-16T05:54:18.389Z,99190.40
2022-09-16T05:56:45.802Z,99194.86
2022-09-16T05:59:13.554Z,99195.52
2022-09-16T06:01:41.273Z,99197.52
2022-09-16T06:04:11.959Z,99192.80
2022-09-16T06:06:45.880Z,99196.33
2022-09-16T06:09:20.102Z,99199.98
2022-09-16T06:11:49.303Z,99199.20
2022-09-16T06:14:17.135Z,99198.16
2022-09-16T06:16:44.182Z,99201.55
2022-09-16T06:19:13.607Z,99197.66
2022-09-16T06:21:41.145Z,99197.89
2022-09-16T06:24:10.766Z,99193.96
2022-09-16T06:26:39.461Z,99200.14
2022-09-16T06:29:07.099Z,99197.98
2022-09-16T06:31:34.140Z,99194.02
2022-09-16T06:34:01.089Z,99190.06
2022-09-16T06:36:29.770Z,99191.23
2022-09-16T06:38:57.003Z,99195.19
2022-09-16T06:41:24.273Z,99197.09
2022-09-16T06:43:52.139Z,99200.66
2022-09-16T06:46:23.857Z,99205.51
2022-09-16T06:48:52.697Z,99205.91
2022-09-16T06:54:23.831Z,99219.45
2022-09-16T06:56:51.387Z,99222.59
2022-09-16T06:59:18.374Z,99229.15
2022-09-16T07:01:45.512Z,99234.29
2022-09-16T07:04:13.667Z,99240.84
2022-09-16T07:07:10.940Z,99241.80
2022-09-16T07:09:28.023Z,99244.27
2022-09-16T07:11:55.589Z,99245.73
2022-09-16T07:14:23.144Z,99245.16
2022-09-16T07:16:50.260Z,99246.45
2022-09-16T07:19:17.133Z,99242.75
2022-09-16T07:21:44.146Z,99241.92
2022-09-16T07:24:12.877Z,99239.24
2022-09-16T07:26:40.684Z,99238.86
2022-09-16T07:29:11.371Z,99244.45
2022-09-16T07:31:38.816Z,99250.58
2022-09-16T07:34:06.950Z,99247.73
2022-09-16T07:36:36.157Z,99249.19
2022-09-16T07:39:04.051Z,99252.71
2022-09-16T07:41:34.277Z,99255.30
2022-09-16T07:44:02.078Z,99260.31
2022-09-16T07:46:30.651Z,99267.70
2022-09-16T07:48:58.482Z,99267.88
2022-09-16T07:51:26.131Z,99265.05
2022-09-16T07:53:55.349Z,99264.05
2022-09-16T07:56:25.510Z,99264.30
2022-09-16T07:58:53.840Z,99261.36
2022-09-16T08:01:20.832Z,99260.73
2022-09-16T08:03:47.985Z,99258.48
2022-09-16T08:06:22.384Z,99258.70
2022-09-16T08:08:55.543Z,99261.57
2022-09-16T08:11:22.589Z,99259.34
2022-09-16T08:13:49.841Z,99257.13
2022-09-16T08:16:19.301Z,99259.75
2022-09-16T08:18:48.106Z,99254.77
2022-09-16T08:21:16.817Z,99253.77
2022-09-16T08:23:47.044Z,99257.39
2022-09-16T08:26:16.237Z,99260.18
2022-09-16T08:29:07.332Z,99262.66
2022-09-16T08:31:32.271Z,99267.45
2022-09-16T08:33:59.704Z,99262.48
2022-09-16T08:36:29.151Z,99259.55
2022-09-16T08:38:56.953Z,99253.19
2022-09-16T08:41:47.677Z,99250.94
2022-09-16T08:44:33.950Z,99251.69
2022-09-16T08:47:02.559Z,99254.83
2022-09-16T08:49:43.957Z,99255.10
2022-09-16T08:52:23.405Z,99256.35
2022-09-16T08:54:53.674Z,99258.64
2022-09-16T08:57:22.867Z,99256.95
2022-09-16T08:59:55.709Z,99258.13
2022-09-16T09:02:38.368Z,99255.60
2022-09-16T09:05:27.390Z,99258.93
2022-09-16T09:07:55.058Z,99264.01
2022-09-16T09:10:28.665Z,99264.50
2022-09-16T09:13:14.102Z,99267.41
2022-09-16T09:15:52.467Z,99265.32
2022-09-16T09:18:39.287Z,99267.25
2022-09-16T09:21:27.502Z,99264.70
2022-09-16T09:24:24.891Z,99260.88
2022-09-16T09:26:53.175Z,99262.59
2022-09-16T09:29:38.858Z,99262.39
2022-09-16T09:32:49.031Z,99265.88
2022-09-16T09:35:41.665Z,99270.15
2022-09-16T09:38:17.829Z,99270.45
2022-09-16T09:40:56.762Z,99273.38
2022-09-16T09:43:41.422Z,99277.45
2022-09-16T09:46:26.600Z,99279.88
2022-09-16T09:49:15.563Z,99280.63
2022-09-16T09:52:10.772Z,99278.81
2022-09-16T09:54:39.395Z,99279.60
2022-09-16T09:57:37.743Z,99282.21
2022-09-16T10:00:15.341Z,99280.98
2022-09-16T10:02:49.658Z,99279.92
2022-09-16T10:05:25.519Z,99284.11
2022-09-16T10:07:53.423Z,99280.36
2022-09-16T10:10:24.845Z,99288.05
2022-09-16T10:12:51.997Z,99291.71
2022-09-16T10:15:45.058Z,99294.86
2022-09-16T10:18:27.265Z,99297.21
2022-09-16T10:21:07.173Z,99297.40
2022-09-16T10:23:34.580Z,99300.19
2022-09-16T10:26:19.637Z,99302.52
2022-09-16T10:29:02.070Z,99302.54
2022-09-16T10:31:35.848Z,99309.12
2022-09-16T10:34:03.942Z,99306.95
2022-09-16T10:36:34.660Z,99303.30
2022-09-16T10:39:04.655Z,99297.70
2022-09-16T10:41:34.409Z,99294.22
2022-09-16T10:44:22.960Z,99285.36
2022-09-16T10:47:01.173Z,99284.09
2022-09-16T10:49:55.264Z,99282.77
2022-09-16T10:52:24.908Z,99284.27
2022-09-16T10:54:52.434Z,99289.19
2022-09-16T10:57:25.522Z,99291.46
2022-09-16T11:00:01.072Z,99292.02
2022-09-16T11:02:55.565Z,99294.44
2022-09-16T11:05:51.139Z,99293.42
2022-09-16T11:08:43.540Z,99297.23
2022-09-16T11:11:20.432Z,99304.14
2022-09-16T11:14:06.194Z,99300.48
2022-09-16T11:16:49.114Z,99300.73
2022-09-16T11:19:28.650Z,99311.52
2022-09-16T11:22:05.766Z,99313.50
2022-09-16T11:25:08.316Z,99310.39
2022-09-16T11:27:53.895Z,99316.95
2022-09-16T11:30:22.595Z,99318.75
2022-09-16T11:33:27.990Z,99322.05
2022-09-16T11:36:30.609Z,99318.48
2022-09-16T11:39:16.294Z,99312.66
2022-09-16T11:42:01.568Z,99314.38
2022-09-16T11:45:07.473Z,99319.79
2022-09-16T11:47:48.911Z,99322.88
2022-09-16T11:50:49.855Z,99321.26
2022-09-16T11:53:41.668Z,99323.52
2022-09-16T11:56:22.660Z,99325.27
2022-09-16T11:59:04.259Z,99329.92
2022-09-16T12:01:39.971Z,99332.87
2022-09-16T12:04:27.084Z,99327.73
2022-09-16T12:07:13.661Z,99325.24
2022-09-16T12:09:45.341Z,99329.43
2022-09-16T12:12:14.827Z,99330.83
2022-09-16T12:14:44.011Z,99326.35
2022-09-16T12:17:24.594Z,99332.22
2022-09-16T12:20:12.375Z,99339.73
2022-09-16T12:22:49.569Z,99337.98
2022-09-16T12:25:22.658Z,99334.34
2022-09-16T12:27:58.108Z,99338.42
2022-09-16T12:30:31.208Z,99339.94
2022-09-16T12:33:06.553Z,99337.03
2022-09-16T12:35:34.901Z,99341.21
2022-09-16T12:38:01.986Z,99342.88
2022-09-16T12:40:50.649Z,99342.05
2022-09-16T12:43:37.155Z,99346.35
2022-09-16T12:46:07.307Z,99345.90
2022-09-16T12:48:52.964Z,99345.52
2022-09-16T12:52:11.117Z,99353.97
2022-09-16T12:55:14.400Z,99359.91
2022-09-16T12:58:00.524Z,99364.90
2022-09-16T13:00:41.878Z,99366.40
2022-09-16T13:03:17.463Z,99365.83
2022-09-16T13:05:47.991Z,99369.14
2022-09-16T13:08:27.840Z,99373.00
2022-09-16T13:11:20.935Z,99367.33
2022-09-16T13:14:03.826Z,99363.51
2022-09-16T13:16:36.097Z,99363.75
2022-09-16T13:19:22.209Z,99365.61
2022-09-16T13:21:49.917Z,99364.47
2022-09-16T13:24:45.150Z,99374.38
2022-09-16T13:27:32.950Z,99375.45
2022-09-16T13:30:09.895Z,99371.81
2022-09-16T13:32:41.044Z,99371.89
2022-09-16T13:35:21.353Z,99376.73
2022-09-16T13:37:49.281Z,99376.98
2022-09-16T13:40:30.762Z,99378.13
2022-09-16T13:43:10.100Z,99374.96
2022-09-16T13:45:38.060Z,99378.98
2022-09-16T13:48:17.294Z,99388.75
2022-09-16T13:50:48.859Z,99397.77
2022-09-16T13:53:21.447Z,99397.44
2022-09-16T13:55:49.135Z,99396.16
2022-09-16T13:58:30.795Z,99401.55
2022-09-16T14:01:13.185Z,99396.94
2022-09-16T14:04:20.900Z,99396.73
2022-09-16T14:06:53.683Z,99399.46
2022-09-16T14:09:29.904Z,99387.70
2022-09-16T14:12:05.281Z,99392.66
2022-09-16T14:14:48.653Z,99407.01
2022-09-16T14:17:27.706Z,99412.10
2022-09-16T14:19:59.831Z,99411.98
2022-09-16T14:22:28.251Z,99420.11
2022-09-16T14:25:06.850Z,99425.96
2022-09-16T14:27:44.407Z,99428.84
2022-09-16T14:30:18.655Z,99430.30
2022-09-16T14:32:46.733Z,99427.68
2022-09-16T14:35:24.578Z,99419.40
2022-09-16T14:37:56.153Z,99422.89
2022-09-16T14:40:24.251Z,99420.45
2022-09-16T14:43:00.433Z,99421.38
2022-09-16T14:45:28.203Z,99430.77
2022-09-16T14:47:55.667Z,99439.81
2022-09-16T14:50:27.918Z,99438.92
2022-09-16T14:52:57.859Z,99436.05
2022-09-16T14:55:36.325Z,99440.60
2022-09-16T14:58:03.844Z,99440.21
2022-09-16T15:01:02.134Z,99442.70
2022-09-16T15:03:38.402Z,99444.08
2022-09-16T15:06:07.940Z,99444.82
2022-09-16T15:08:55.656Z,99450.46
2022-09-16T15:11:46.569Z,99451.64
2022-09-16T15:14:11.462Z,99452.54
2022-09-16T15:16:44.776Z,99454.23
2022-09-16T15:19:34.669Z,99462.14
2022-09-16T15:22:02.204Z,99466.34
2022-09-16T15:24:34.071Z,99472.53
2022-09-16T15:27:01.022Z,99475.95
2022-09-16T15:29:33.395Z,99473.20
2022-09-16T15:32:15.321Z,99465.86
2022-09-16T15:34:44.056Z,99465.66
2022-09-16T15:37:49.652Z,99464.95
2022-09-16T15:40:42.717Z,99467.10
2022-09-16T15:43:15.832Z,99472.03
2022-09-16T15:45:43.889Z,99476.37
2022-09-16T15:48:20.984Z,99472.20
2022-09-16T15:50:56.783Z,99466.14
2022-09-16T15:53:30.031Z,99466.69
2022-09-16T15:55:57.388Z,99464.61
2022-09-16T15:58:33.453Z,99462.92
2022-09-16T16:01:03.172Z,99468.88
2022-09-16T16:03:45.585Z,99475.66
2022-09-16T16:06:13.185Z,99478.43
2022-09-16T16:08:43.766Z,99474.85
2022-09-16T16:11:12.881Z,99473.42
2022-09-16T16:13:40.756Z,99474.92
2022-09-16T16:16:08.584Z,99478.91
2022-09-16T16:18:36.501Z,99478.77
2022-09-16T16:21:13.146Z,99483.20
2022-09-16T16:23:40.129Z,99486.30
2022-09-16T16:26:08.123Z,99484.81
2022-09-16T16:28:36.580Z,99489.70
2022-09-16T16:31:13.003Z,99493.70
2022-09-16T16:33:48.802Z,99497.05
2022-09-16T16:36:16.777Z,99507.86
2022-09-16T16:38:47.197Z,99514.52
2022-09-16T16:41:22.742Z,99518.48
2022-09-16T16:43:50.059Z,99523.45
2022-09-16T16:46:18.064Z,99528.55
2022-09-16T16:48:45.114Z,99533.49
2022-09-16T16:51:13.389Z,99535.80
2022-09-16T16:53:41.524Z,99536.32
2022-09-16T16:56:14.842Z,99542.09
2022-09-16T16:58:45.900Z,99543.86
2022-09-16T17:01:19.852Z,99542.90
2022-09-16T17:03:50.429Z,99545.45
2022-09-16T17:06:17.888Z,99548.83
2022-09-16T17:08:44.832Z,99551.01
2022-09-16T17:11:12.084Z,99548.48
2022-09-16T17:13:40.871Z,99550.54
2022-09-16T17:16:08.565Z,99547.23
2022-09-16T17:18:36.810Z,99546.53
2022-09-16T17:21:09.489Z,99547.40
2022-09-16T17:23:36.308Z,99548.35
2022-09-16T17:26:03.723Z,99550.68
2022-09-16T17:28:30.525Z,99552.46
2022-09-16T17:30:58.100Z,99556.02
2022-09-16T17:33:26.039Z,99560.14
2022-09-16T17:36:03.940Z,99568.08
2022-09-16T17:38:30.809Z,99571.39
2022-09-16T17:41:16.802Z,99571.96
2022-09-16T17:43:44.782Z,99574.81
2022-09-16T17:46:16.504Z,99576.58
2022-09-16T17:48:44.005Z,99582.23
2022-09-16T17:51:11.061Z,99583.40
2022-09-16T17:53:38.280Z,99579.04
2022-09-16T17:56:11.742Z,99580.46
2022-09-16T17:58:40.705Z,99580.92
2022-09-16T18:01:10.052Z,99581.20
2022-09-16T18:03:37.386Z,99584.79
2022-09-16T18:06:10.383Z,99588.14
2022-09-16T18:08:37.540Z,99593.22
2022-09-16T18:11:05.055Z,99596.10
2022-09-16T18:13:33.499Z,99597.06
2022-09-16T18:16:10.744Z,99597.64
2022-09-16T18:18:39.322Z,99595.81
2022-09-16T18:21:10.480Z,99597.40
2022-09-16T18:23:38.614Z,99600.44
2022-09-16T18:26:06.993Z,99602.13
2022-09-16T18:28:58.291Z,99608.27
2022-09-16T18:31:25.583Z,99607.97
2022-09-16T18:33:56.042Z,99605.08
2022-09-16T18:36:25.481Z,99604.59
2022-09-16T18:38:53.535Z,99603.07
2022-09-16T18:41:25.375Z,99605.34
2022-09-16T18:43:55.346Z,99607.00
2022-09-16T18:46:27.076Z,99610.60
2022-09-16T18:48:54.043Z,99613.56
2022-09-16T18:51:24.455Z,99616.70
2022-09-16T18:53:52.254Z,99618.54
2022-09-16T18:56:21.541Z,99611.60
2022-09-16T18:59:16.838Z,99607.52
2022-09-16T19:01:38.144Z,99605.33
2022-09-16T19:04:06.646Z,99602.33
2022-09-16T19:06:38.246Z,99604.31
2022-09-16T19:09:06.720Z,99603.65
2022-09-16T19:11:34.407Z,99604.77
2022-09-16T19:14:02.056Z,99606.98
2022-09-16T19:16:28.907Z,99611.17
2022-09-16T19:18:56.678Z,99614.05
2022-09-16T19:21:23.974Z,99617.19
2022-09-16T19:24:00.429Z,99611.11
2022-09-16T19:26:31.142Z,99610.61
2022-09-16T19:28:58.725Z,99616.66
2022-09-16T19:31:25.933Z,99611.68
2022-09-16T19:33:54.235Z,99613.14
2022-09-16T19:36:24.808Z,99616.69
2022-09-16T19:38:52.246Z,99618.70
2022-09-16T19:41:20.527Z,99617.61
2022-09-16T19:43:47.623Z,99621.68
2022-09-16T19:46:17.159Z,99619.86
2022-09-16T19:48:46.367Z,99614.86
2022-09-16T19:51:14.530Z,99610.11
2022-09-16T19:53:42.305Z,99612.78
2022-09-16T19:56:14.279Z,99613.80
2022-09-16T19:58:41.329Z,99607.75
2022-09-16T20:01:10.616Z,99603.70
2022-09-16T20:03:39.184Z,99600.55
2022-09-16T20:06:13.154Z,99593.98
2022-09-16T20:08:41.156Z,99596.89
2022-09-16T20:11:13.864Z,99601.20
2022-09-16T20:13:41.199Z,99601.56
2022-09-16T20:16:08.879Z,99603.50
2022-09-16T20:18:36.331Z,99604.31
2022-09-16T20:21:07.722Z,99606.38
2022-09-16T20:23:34.634Z,99608.23
2022-09-16T20:26:06.499Z,99606.54
2022-09-16T20:28:35.147Z,99600.05
2022-09-16T20:31:02.352Z,99598.29
2022-09-16T20:33:33.267Z,99593.98
2022-09-16T20:36:11.812Z,99591.93
2022-09-16T20:38:39.986Z,99590.08
2022-09-16T20:41:08.501Z,99585.12
2022-09-16T20:43:35.533Z,99585.55
2022-09-16T20:46:15.685Z,99587.02
2022-09-16T20:48:42.743Z,99589.15
2022-09-16T20:51:11.951Z,99591.52
2022-09-16T20:53:40.306Z,99598.34
2022-09-16T20:56:10.282Z,99600.88
2022-09-16T20:58:37.507Z,99600.55
2022-09-16T21:01:20.768Z,99596.55
2022-09-16T21:03:51.476Z,99601.16
2022-09-16T21:06:18.731Z,99607.47
2022-09-16T21:08:45.783Z,99611.10
2022-09-16T21:11:13.587Z,99610.08
2022-09-16T21:13:41.638Z,99611.64
2022-09-16T21:16:10.298Z,99612.04
2022-09-16T21:18:37.196Z,99617.41
2022-09-16T21:21:09.246Z,99618.42
2022-09-16T21:23:36.197Z,99618.45
2022-09-16T21:26:16.672Z,99613.78
2022-09-16T21:28:44.956Z,99612.04
2022-09-16T21:31:13.699Z,99605.21
2022-09-16T21:33:41.928Z,99601.17
2022-09-16T21:36:11.409Z,99601.50
2022-09-16T21:38:38.812Z,99604.25
2022-09-16T21:41:09.498Z,99608.66
2022-09-16T21:43:49.672Z,99610.63
2022-09-16T21:46:19.378Z,99614.33
2022-09-16T21:48:50.474Z,99617.61
2022-09-16T21:51:19.396Z,99619.77
2022-09-16T21:53:46.571Z,99619.74
2022-09-16T21:56:18.499Z,99617.08
2022-09-16T21:58:45.357Z,99616.75
2022-09-16T22:01:16.958Z,99617.77
2022-09-16T22:03:45.265Z,99618.21
2022-09-16T22:06:13.277Z,99620.12
2022-09-16T22:08:40.123Z,99620.98
2022-09-16T22:11:09.126Z,99616.23
2022-09-16T22:13:36.850Z,99614.61
2022-09-16T22:16:04.814Z,99615.27
2022-09-16T22:18:32.021Z,99618.63
2022-09-16T22:21:03.171Z,99621.67
2022-09-16T22:23:30.535Z,99624.59
2022-09-16T22:25:58.519Z,99626.78
2022-09-16T22:28:25.261Z,99624.23
2022-09-16T22:30:52.008Z,99620.73
2022-09-16T22:33:19.060Z,99621.58
2022-09-16T22:35:46.130Z,99621.73
2022-09-16T22:38:13.677Z,99619.86
2022-09-16T22:40:41.028Z,99618.84
2022-09-16T22:43:07.770Z,99620.64
2022-09-16T22:45:34.717Z,99619.67
2022-09-16T22:48:01.661Z,99618.88
2022-09-16T22:50:28.405Z,99614.52
2022-09-16T22:52:55.873Z,99619.79
2022-09-16T22:55:23.233Z,99619.86
2022-09-16T22:57:50.084Z,99622.77
2022-09-16T23:00:16.926Z,99620.61
2022-09-16T23:02:43.644Z,99617.11
2022-09-16T23:05:10.899Z,99619.79
2022-09-16T23:07:38.937Z,99617.15
2022-09-16T23:10:10.444Z,99612.02
2022-09-16T23:12:37.553Z,99612.59
2022-09-16T23:15:06.144Z,99603.34
2022-09-16T23:17:32.891Z,99598.80
2022-09-16T23:20:00.157Z,99607.17
2022-09-16T23:22:27.616Z,99612.97
2022-09-16T23:24:54.372Z,99610.69
2022-09-16T23:27:21.112Z,99601.48
2022-09-16T23:29:48.167Z,99595.15
2022-09-16T23:32:15.535Z,99600.52
2022-09-16T23:34:42.894Z,99597.80
2022-09-16T23:37:09.751Z,99589.65
2022-09-16T23:39:36.900Z,99584.39
2022-09-16T23:42:03.855Z,99587.70
2022-09-16T23:44:31.525Z,99591.91
2022-09-16T23:46:59.199Z,99598.61
2022-09-16T23:49:26.036Z,99596.58
2022-09-16T23:51:52.780Z,99596.48
2022-09-16T23:54:20.349Z,99591.45
2022-09-16T23:56:47.712Z,99581.97
2022-09-16T23:59:15.381Z,99575.80
